Pangborn Memorial Airport
KEAT : now visible

Airfield :











YOU CAN JOIN US ON...

 
LOGIN :

Register | Disclaimer

   EN    FR    IT 

 









Legend :    VFR   Marginal VFR   IFR   Intensive IFR   Very Intensive IFR
Visi :
Ceiling :
>= 8 km
>= 3000ft
5 to 8 km
1000 to 3000 ft
1500m to 5 km
500 to 1000 ft
800 to 1500m
200 to 500 ft
< 800m
< 200 ft
Symbols :   Thunderstorms  Fog  Heavy snow  Heavy precipitations  Wind > 20 kt






- Airport Elevation : 1249 ft


KEAT - Pangborn Memorial

CURRENT METAR :
  • 140755Z AUTO 00000KT 10SM OVC015 03/01 A3023 RMK AO2 SLP244 T00330006 400391006

EXPIRED METARs :
  • 140655Z AUTO 00000KT 10SM OVC016 03/01 A3023 RMK AO2 SLP247 T00330006
  • 140555Z AUTO 00000KT 10SM OVC015 03/01 A3023 RMK AO2 SLP246 T00330006 10039 20033 50003

TAF KEAT
Valid from the 14 at 06:00 until the 15 at 06:00 UTC


140538Z 1406/1506 VRB04KT P6SM OVC015
FM141800 VRB04KT P6SM OVC025



MET'MAP, your aeronautical weather chart ! - Copyright ORBIFLY December 2007 - Disclaimer

ORBIFLY MET'MAP TEAM :

Programming & Development : Alexandra Zaïnal
Concept & Development : Baudouin d'Aumeries
Co-Development & Prog : Marc-Olivier Méhu
Technical & hardware support : Manuel Goepfert

Contact : metmap@orbifly.com




SOURCES & CREDITS :

   NOAA       Earth
Advisory